Time;durP1;ratioP1;P1;durP2;ratioP2;P2;SDS_P1;SDS_P2;PMS_P1;PMS_P2;Temp;Humidity;BMP_temperature;BMP_pressure;BME280_temperature;BME280_humidity;BME280_pressure;Samples;Min_cycle;Max_cycle;Signal;HPM_P1;HPM_P2
2021/10/07 00:00:44;;;;;;;9.93;4.45;;;7.10;99.90;;;;;;5071173;28;20083;-65
2021/10/07 00:03:10;;;;;;;14.73;4.60;;;7.00;99.90;;;;;;5071143;28;20083;-65
2021/10/07 00:05:35;;;;;;;11.48;4.20;;;7.00;99.90;;;;;;5070916;28;20064;-65
2021/10/07 00:08:01;;;;;;;4.30;3.85;;;6.90;99.90;;;;;;5072213;28;20819;-65
2021/10/07 00:10:27;;;;;;;7.55;4.32;;;6.90;99.90;;;;;;5069520;28;20406;-65
2021/10/07 00:12:53;;;;;;;5.32;4.07;;;6.90;99.90;;;;;;5072413;28;20056;-65
2021/10/07 00:15:19;;;;;;;4.88;4.38;;;7.00;99.90;;;;;;5070584;28;20420;-65
2021/10/07 00:17:45;;;;;;;8.13;5.43;;;7.00;99.90;;;;;;5070553;28;20032;-65
2021/10/07 00:20:14;;;;;;;5.85;5.25;;;7.00;99.90;;;;;;5072422;28;20051;-65
2021/10/07 00:22:40;;;;;;;7.00;5.30;;;7.00;99.90;;;;;;5071578;28;20037;-65
2021/10/07 00:25:10;;;;;;;10.57;4.55;;;7.10;99.90;;;;;;5071810;28;20348;-65
2021/10/07 00:27:36;;;;;;;5.63;5.10;;;7.10;99.90;;;;;;5070443;28;20120;-65
2021/10/07 00:30:12;;;;;;;6.35;5.03;;;7.20;99.90;;;;;;5071387;28;20037;-65
2021/10/07 00:32:52;;;;;;;6.88;5.68;;;7.20;99.90;;;;;;5071632;28;20048;-65
2021/10/07 00:35:42;;;;;;;7.07;5.35;;;7.30;99.90;;;;;;5070942;28;20165;-65
2021/10/07 00:40:52;;;;;;;6.75;5.70;;;7.40;99.90;;;;;;5071292;28;20051;-65
2021/10/07 00:43:17;;;;;;;6.70;5.97;;;7.50;99.90;;;;;;5068514;28;20048;-65
2021/10/07 00:45:55;;;;;;;8.13;6.65;;;7.60;99.90;;;;;;5071275;28;20036;-65
2021/10/07 00:48:21;;;;;;;5.82;5.22;;;7.60;99.90;;;;;;5064221;28;20040;-65
2021/10/07 00:50:47;;;;;;;5.25;4.60;;;7.60;99.90;;;;;;5071100;28;20474;-66
2021/10/07 00:53:15;;;;;;;6.20;5.03;;;7.60;99.90;;;;;;5069362;28;20050;-65
2021/10/07 00:55:41;;;;;;;5.72;5.13;;;7.70;99.90;;;;;;5070302;28;20028;-65
2021/10/07 00:58:07;;;;;;;8.35;6.07;;;7.70;99.90;;;;;;5071395;28;20532;-65
2021/10/07 01:00:33;;;;;;;9.02;7.28;;;7.80;99.90;;;;;;5068081;28;20041;-65
2021/10/07 01:02:58;;;;;;;9.15;7.60;;;7.80;99.90;;;;;;5062271;28;20398;-65
2021/10/07 01:05:24;;;;;;;10.60;7.70;;;8.00;99.90;;;;;;5069979;28;20051;-65
2021/10/07 01:07:50;;;;;;;25.10;8.43;;;8.00;99.90;;;;;;5071145;28;20044;-65
2021/10/07 01:10:16;;;;;;;36.25;9.88;;;8.00;99.90;;;;;;5070908;28;20438;-65
2021/10/07 01:12:41;;;;;;;73.13;12.40;;;8.10;99.90;;;;;;5068308;28;20128;-65
2021/10/07 01:15:07;;;;;;;52.08;11.35;;;8.10;99.90;;;;;;5068355;28;20094;-65
2021/10/07 01:17:33;;;;;;;42.03;11.82;;;8.20;99.90;;;;;;5067585;28;20066;-65
2021/10/07 01:20:01;;;;;;;52.25;11.10;;;8.30;99.90;;;;;;5065402;28;20124;-65
2021/10/07 01:22:28;;;;;;;49.47;11.15;;;8.30;99.90;;;;;;5069607;28;20131;-65
2021/10/07 01:24:55;;;;;;;54.83;12.48;;;8.40;99.90;;;;;;5070291;28;20048;-65
2021/10/07 01:27:24;;;;;;;93.68;13.18;;;8.40;99.90;;;;;;5071016;28;20048;-65
2021/10/07 01:29:57;;;;;;;163.25;16.13;;;8.50;99.90;;;;;;5070113;28;20037;-65
2021/10/07 01:32:23;;;;;;;94.45;14.55;;;8.50;99.90;;;;;;5061781;28;20056;-65
2021/10/07 01:34:49;;;;;;;82.22;13.57;;;8.60;99.90;;;;;;5069822;28;20040;-65
2021/10/07 01:37:15;;;;;;;67.57;13.68;;;8.60;99.90;;;;;;5067285;28;20037;-65
2021/10/07 01:39:40;;;;;;;209.30;18.95;;;8.70;99.90;;;;;;5070487;28;20044;-65
2021/10/07 01:42:06;;;;;;;74.90;14.52;;;8.60;99.90;;;;;;5070526;28;20041;-65
2021/10/07 01:44:31;;;;;;;99.68;15.88;;;8.70;99.90;;;;;;5069990;28;20044;-65
2021/10/07 01:46:57;;;;;;;54.70;14.30;;;8.70;99.90;;;;;;5069830;28;20406;-65
2021/10/07 01:49:23;;;;;;;147.63;17.15;;;8.70;99.90;;;;;;5066981;28;20513;-65
2021/10/07 01:51:49;;;;;;;61.90;14.50;;;8.80;99.90;;;;;;5063226;28;20131;-65
2021/10/07 01:54:15;;;;;;;230.70;19.75;;;8.80;99.90;;;;;;5069127;28;20076;-65
2021/10/07 01:56:41;;;;;;;155.05;15.65;;;8.80;99.90;;;;;;5070168;28;20509;-65
2021/10/07 01:59:07;;;;;;;106.68;14.23;;;8.80;99.90;;;;;;5069464;28;20037;-65
2021/10/07 02:01:33;;;;;;;87.25;14.43;;;8.80;99.90;;;;;;5070165;28;20367;-65
2021/10/07 02:04:01;;;;;;;120.82;13.88;;;8.80;99.90;;;;;;5068032;28;20032;-65
2021/10/07 02:06:27;;;;;;;73.57;12.73;;;8.80;99.90;;;;;;5062433;28;20094;-65
2021/10/07 02:08:53;;;;;;;163.13;15.98;;;8.80;99.90;;;;;;5069809;28;20132;-66
2021/10/07 02:11:19;;;;;;;50.05;11.82;;;8.80;99.90;;;;;;5070031;28;20127;-66
2021/10/07 02:13:44;;;;;;;61.72;14.50;;;8.90;99.90;;;;;;5068485;28;20083;-65
2021/10/07 02:16:10;;;;;;;106.45;17.38;;;8.90;99.90;;;;;;5067043;28;20420;-65
2021/10/07 02:18:35;;;;;;;72.20;14.82;;;8.90;99.90;;;;;;5069706;28;20453;-65
2021/10/07 02:21:01;;;;;;;60.00;14.65;;;8.90;99.90;;;;;;5069572;28;20398;-65
2021/10/07 02:23:27;;;;;;;69.50;15.63;;;8.90;99.90;;;;;;5064109;28;20051;-66
2021/10/07 02:25:52;;;;;;;59.05;14.70;;;8.80;99.90;;;;;;5068206;28;20047;-66
2021/10/07 02:28:18;;;;;;;67.85;15.02;;;8.90;99.90;;;;;;5068770;28;20043;-65
2021/10/07 02:30:44;;;;;;;131.40;16.08;;;8.80;99.90;;;;;;5069719;28;20041;-65
2021/10/07 02:33:10;;;;;;;92.20;14.45;;;8.80;99.90;;;;;;5069774;28;20086;-65
2021/10/07 02:35:36;;;;;;;61.17;15.02;;;8.80;99.90;;;;;;5067795;28;20414;-65
2021/10/07 02:38:03;;;;;;;63.50;14.48;;;8.80;99.90;;;;;;5069948;28;20345;-65
2021/10/07 02:40:29;;;;;;;89.45;14.95;;;8.80;99.90;;;;;;5069702;28;20482;-65
2021/10/07 02:42:55;;;;;;;117.88;16.67;;;8.80;99.90;;;;;;5068789;28;20055;-65
2021/10/07 02:45:21;;;;;;;93.47;14.25;;;8.90;99.90;;;;;;5068232;28;20073;-65
2021/10/07 02:47:47;;;;;;;173.15;15.65;;;8.90;99.90;;;;;;5069539;28;20082;-65
2021/10/07 02:50:13;;;;;;;202.10;15.38;;;8.90;99.90;;;;;;5067635;28;20059;-65
2021/10/07 02:52:39;;;;;;;224.88;16.90;;;8.90;99.90;;;;;;5069658;28;20127;-65
2021/10/07 02:55:05;;;;;;;160.27;14.02;;;8.90;99.90;;;;;;5069206;28;20040;-65
2021/10/07 02:57:31;;;;;;;175.40;15.18;;;8.80;99.90;;;;;;5069455;28;20490;-65
2021/10/07 02:59:57;;;;;;;110.32;13.95;;;8.80;99.90;;;;;;5071629;28;20043;-65
2021/10/07 03:02:22;;;;;;;144.70;15.68;;;8.70;99.90;;;;;;5072391;28;20073;-65
2021/10/07 03:04:52;;;;;;;164.15;16.08;;;8.70;99.90;;;;;;5071900;28;20048;-65
2021/10/07 03:07:18;;;;;;;94.35;13.50;;;8.70;99.90;;;;;;5080958;22;20133;-65
2021/10/07 03:09:43;;;;;;;136.13;15.88;;;8.60;99.90;;;;;;5087756;28;20044;-65
2021/10/07 03:12:09;;;;;;;122.15;15.90;;;8.70;99.90;;;;;;5076010;28;20080;-66
2021/10/07 03:14:39;;;;;;;97.45;14.13;;;8.70;99.90;;;;;;5066305;28;20090;-66
2021/10/07 03:17:05;;;;;;;132.07;15.95;;;8.70;99.90;;;;;;5063160;28;20053;-66
2021/10/07 03:19:31;;;;;;;135.65;15.75;;;8.70;99.90;;;;;;5068247;28;20405;-65
2021/10/07 03:21:56;;;;;;;137.10;16.27;;;8.60;99.90;;;;;;5073205;28;20056;-65
2021/10/07 03:24:22;;;;;;;101.43;15.75;;;8.60;99.90;;;;;;5071538;28;20501;-65
2021/10/07 03:26:47;;;;;;;151.18;17.95;;;8.60;99.90;;;;;;5071844;28;20657;-65
2021/10/07 03:29:13;;;;;;;117.18;17.73;;;8.70;99.90;;;;;;5073372;28;20379;-65
2021/10/07 03:31:38;;;;;;;93.82;16.48;;;8.70;99.90;;;;;;5067514;28;20036;-65
2021/10/07 03:34:04;;;;;;;46.42;15.82;;;8.70;99.90;;;;;;5076909;28;20033;-65
2021/10/07 03:36:29;;;;;;;56.08;14.98;;;8.80;99.90;;;;;;5072163;28;20044;-65
2021/10/07 03:38:55;;;;;;;98.03;15.80;;;8.80;99.90;;;;;;5069411;28;20044;-65
2021/10/07 03:41:21;;;;;;;179.15;19.35;;;8.90;99.90;;;;;;5076669;28;20028;-65
2021/10/07 03:43:46;;;;;;;83.78;15.77;;;8.90;99.90;;;;;;5075330;28;20044;-65
2021/10/07 03:46:12;;;;;;;146.98;16.98;;;8.90;99.90;;;;;;5072461;28;20127;-65
2021/10/07 03:48:37;;;;;;;83.75;14.80;;;8.90;99.90;;;;;;5070269;28;20045;-65
2021/10/07 03:51:03;;;;;;;121.85;15.32;;;9.00;99.90;;;;;;5070109;28;20037;-65
2021/10/07 03:53:29;;;;;;;78.93;13.60;;;8.90;99.90;;;;;;5071045;28;20032;-65
2021/10/07 03:55:55;;;;;;;82.78;13.82;;;8.90;99.90;;;;;;5071465;28;20086;-65
2021/10/07 03:58:20;;;;;;;50.72;12.35;;;8.90;99.90;;;;;;5070639;28;20040;-65
2021/10/07 04:00:46;;;;;;;129.75;14.70;;;8.90;99.90;;;;;;5071002;28;20044;-65
2021/10/07 04:03:11;;;;;;;137.77;15.63;;;9.00;99.90;;;;;;5071423;28;20047;-65
2021/10/07 04:05:37;;;;;;;98.10;13.35;;;9.00;99.90;;;;;;5072770;28;20036;-66
2021/10/07 04:08:04;;;;;;;117.10;15.80;;;8.90;99.90;;;;;;5067765;28;20091;-65
2021/10/07 04:10:30;;;;;;;70.95;14.40;;;8.90;99.90;;;;;;5070915;28;20040;-65
2021/10/07 04:12:56;;;;;;;94.07;13.82;;;8.90;99.90;;;;;;5069065;28;20045;-65
2021/10/07 04:15:22;;;;;;;134.05;16.35;;;8.90;99.90;;;;;;5070168;28;20043;-65
2021/10/07 04:17:47;;;;;;;78.57;15.18;;;8.80;99.90;;;;;;5069008;28;20118;-65
2021/10/07 04:20:13;;;;;;;65.93;14.27;;;8.80;99.90;;;;;;5062339;28;20052;-65
2021/10/07 04:22:38;;;;;;;58.55;15.05;;;8.90;99.90;;;;;;5070873;28;20110;-65
2021/10/07 04:25:05;;;;;;;85.38;15.00;;;8.90;99.90;;;;;;5070278;28;20482;-65
2021/10/07 04:27:31;;;;;;;78.38;14.43;;;8.90;99.90;;;;;;5066183;28;20036;-65
2021/10/07 04:29:59;;;;;;;71.53;13.85;;;8.90;99.90;;;;;;5071007;28;20048;-65
2021/10/07 04:32:24;;;;;;;109.90;15.35;;;9.00;99.90;;;;;;5070269;28;20052;-65
2021/10/07 04:34:50;;;;;;;89.15;13.00;;;8.90;99.90;;;;;;5079171;28;20037;-65
2021/10/07 04:37:15;;;;;;;126.25;13.23;;;8.80;99.90;;;;;;5069672;28;20083;-65
2021/10/07 04:39:41;;;;;;;111.45;12.35;;;8.70;99.90;;;;;;5067779;28;20049;-65
2021/10/07 04:42:07;;;;;;;115.40;13.35;;;8.70;99.90;;;;;;5065565;28;20501;-65
2021/10/07 04:44:32;;;;;;;127.95;14.40;;;8.70;99.90;;;;;;5065500;28;20120;-65
2021/10/07 04:46:58;;;;;;;88.60;11.25;;;8.60;99.90;;;;;;5068617;28;20482;-66
2021/10/07 04:49:23;;;;;;;91.95;11.18;;;8.60;99.90;;;;;;5066573;28;20048;-65
2021/10/07 04:51:49;;;;;;;107.32;12.82;;;8.60;99.90;;;;;;5068888;28;20071;-65
2021/10/07 04:54:14;;;;;;;109.97;13.80;;;8.50;99.90;;;;;;5067343;28;20051;-65
2021/10/07 04:56:40;;;;;;;134.07;13.85;;;8.50;99.90;;;;;;5068627;28;20044;-65
2021/10/07 04:59:06;;;;;;;178.88;17.08;;;8.40;99.90;;;;;;5068583;28;20039;-65
2021/10/07 05:01:31;;;;;;;137.32;14.98;;;8.40;99.90;;;;;;5069101;28;20048;-65
2021/10/07 05:03:57;;;;;;;107.20;13.25;;;8.40;99.90;;;;;;5066870;28;20577;-65
2021/10/07 05:06:22;;;;;;;174.07;15.07;;;8.50;99.90;;;;;;5068713;28;20052;-65
2021/10/07 05:08:48;;;;;;;86.05;12.07;;;8.50;99.90;;;;;;5068987;28;20493;-65
2021/10/07 05:11:13;;;;;;;174.05;14.95;;;8.50;99.90;;;;;;5068139;28;20473;-65
2021/10/07 05:13:39;;;;;;;186.07;15.77;;;8.50;99.90;;;;;;5069004;28;20039;-65
2021/10/07 05:16:06;;;;;;;209.73;16.48;;;8.50;99.90;;;;;;5072125;28;20066;-65
2021/10/07 05:18:32;;;;;;;102.88;12.95;;;8.50;99.90;;;;;;5063629;28;20044;-65
2021/10/07 05:20:57;;;;;;;154.05;14.13;;;8.60;99.90;;;;;;5066055;28;20063;-65
2021/10/07 05:23:23;;;;;;;148.07;12.68;;;8.60;99.90;;;;;;5068250;28;20052;-65
2021/10/07 05:25:48;;;;;;;143.73;13.43;;;8.60;99.90;;;;;;5067182;28;20094;-65
2021/10/07 05:28:14;;;;;;;162.27;13.20;;;8.50;99.90;;;;;;5069750;28;20052;-65
2021/10/07 05:30:40;;;;;;;81.95;9.98;;;8.50;99.90;;;;;;5067295;28;20045;-65
2021/10/07 05:33:06;;;;;;;125.97;12.23;;;8.50;99.90;;;;;;5070834;28;20051;-65
2021/10/07 05:35:31;;;;;;;167.48;13.30;;;8.50;99.90;;;;;;5070502;28;20093;-66
2021/10/07 05:37:57;;;;;;;136.73;11.48;;;8.50;99.90;;;;;;5070031;28;20036;-65
2021/10/07 05:40:23;;;;;;;101.43;11.43;;;8.50;99.90;;;;;;5059546;28;20040;-65
2021/10/07 05:42:48;;;;;;;50.33;10.48;;;8.50;99.90;;;;;;5067898;28;20040;-65
2021/10/07 05:45:14;;;;;;;50.60;10.60;;;8.50;99.90;;;;;;5066622;28;20040;-65
2021/10/07 05:47:41;;;;;;;157.98;12.75;;;8.50;99.90;;;;;;5065533;28;20041;-65
2021/10/07 05:50:09;;;;;;;112.75;11.13;;;8.50;99.90;;;;;;5065825;28;20041;-65
2021/10/07 05:52:36;;;;;;;137.35;12.35;;;8.50;99.90;;;;;;5068644;28;20040;-66
2021/10/07 05:55:02;;;;;;;94.82;10.63;;;8.50;99.90;;;;;;5068876;28;20036;-65
2021/10/07 05:57:28;;;;;;;91.30;10.52;;;8.50;99.90;;;;;;5052189;28;20071;-65
2021/10/07 05:59:54;;;;;;;142.13;11.50;;;8.50;99.90;;;;;;5068584;28;20171;-65
2021/10/07 06:02:19;;;;;;;105.22;11.82;;;8.50;99.90;;;;;;5066672;28;20044;-65
2021/10/07 06:04:45;;;;;;;120.32;12.13;;;8.40;99.90;;;;;;5064533;28;20035;-65
2021/10/07 06:07:11;;;;;;;127.45;11.77;;;8.40;99.90;;;;;;5067468;28;20056;-65
2021/10/07 06:09:36;;;;;;;118.72;11.75;;;8.50;99.90;;;;;;5067761;28;20139;-65
2021/10/07 06:12:02;;;;;;;65.82;10.63;;;8.50;99.90;;;;;;5067819;28;20044;-65
2021/10/07 06:14:28;;;;;;;98.80;10.50;;;8.50;99.90;;;;;;5068332;28;20039;-65
2021/10/07 06:16:54;;;;;;;150.65;11.23;;;8.60;99.90;;;;;;5061931;28;20033;-65
2021/10/07 06:19:22;;;;;;;143.13;12.10;;;8.60;99.90;;;;;;5055644;28;20049;-65
2021/10/07 06:21:48;;;;;;;103.97;10.65;;;8.60;99.90;;;;;;5063861;28;20091;-65
2021/10/07 06:24:14;;;;;;;64.03;10.25;;;8.60;99.90;;;;;;5068214;28;20062;-65
2021/10/07 06:26:40;;;;;;;227.73;13.45;;;8.60;99.90;;;;;;5065288;28;20500;-65
2021/10/07 06:29:06;;;;;;;158.88;11.10;;;8.70;99.90;;;;;;5066642;28;20047;-65
2021/10/07 06:31:32;;;;;;;191.55;12.55;;;8.70;99.90;;;;;;5067623;28;20047;-65
2021/10/07 06:33:57;;;;;;;60.17;9.13;;;8.70;99.90;;;;;;5066321;28;20083;-65
2021/10/07 06:36:23;;;;;;;151.88;10.85;;;8.80;99.90;;;;;;5067368;28;20085;-65
2021/10/07 06:38:48;;;;;;;139.18;10.40;;;8.80;99.90;;;;;;5078671;28;20107;-65
2021/10/07 06:41:15;;;;;;;68.28;8.45;;;8.80;99.90;;;;;;5070059;28;20040;-65
2021/10/07 06:43:41;;;;;;;79.72;8.82;;;8.80;99.90;;;;;;5070390;28;20048;-65
2021/10/07 06:46:06;;;;;;;44.40;8.45;;;8.90;99.90;;;;;;5068646;28;20063;-65
2021/10/07 06:48:33;;;;;;;68.35;8.48;;;9.00;99.90;;;;;;5072647;28;20386;-65
2021/10/07 06:50:59;;;;;;;89.55;7.90;;;9.00;99.90;;;;;;5058673;28;20060;-65
2021/10/07 06:53:25;;;;;;;60.67;7.78;;;9.00;99.90;;;;;;5071608;28;20032;-64
2021/10/07 06:55:50;;;;;;;48.65;7.13;;;9.00;99.90;;;;;;5069851;28;20131;-66
2021/10/07 06:58:18;;;;;;;61.70;7.57;;;9.00;99.90;;;;;;5065818;28;20069;-66
2021/10/07 07:00:44;;;;;;;69.45;7.82;;;9.10;99.90;;;;;;5066820;28;20044;-66
2021/10/07 07:03:10;;;;;;;98.78;8.45;;;9.10;99.90;;;;;;5076917;28;20058;-66
2021/10/07 07:05:36;;;;;;;43.90;6.32;;;9.20;99.90;;;;;;5074255;28;20108;-66
2021/10/07 07:08:02;;;;;;;89.60;7.53;;;9.20;99.90;;;;;;5072722;28;20127;-66
2021/10/07 07:10:27;;;;;;;121.57;9.07;;;9.20;99.90;;;;;;5076431;28;20090;-66
2021/10/07 07:12:53;;;;;;;46.30;7.50;;;9.30;99.90;;;;;;5076726;28;20517;-66
2021/10/07 07:15:19;;;;;;;30.98;6.40;;;9.30;99.90;;;;;;5072822;28;20044;-66
2021/10/07 07:17:45;;;;;;;58.70;6.95;;;9.40;99.90;;;;;;5073736;28;20480;-66
2021/10/07 07:20:11;;;;;;;161.48;9.80;;;9.40;99.90;;;;;;5070519;28;20045;-66
2021/10/07 07:22:38;;;;;;;72.40;7.22;;;9.50;99.90;;;;;;5060267;28;20600;-66
2021/10/07 07:25:05;;;;;;;118.18;9.05;;;9.50;99.90;;;;;;5084541;28;20370;-66
2021/10/07 07:27:30;;;;;;;105.07;9.02;;;9.60;99.90;;;;;;5076562;28;20040;-66
2021/10/07 07:29:56;;;;;;;109.10;9.35;;;9.50;99.90;;;;;;5074388;28;20037;-66
2021/10/07 07:32:21;;;;;;;92.00;8.80;;;9.50;99.90;;;;;;5087684;28;20121;-66
2021/10/07 07:34:47;;;;;;;89.95;9.23;;;9.50;99.90;;;;;;5081545;28;20039;-66
2021/10/07 07:37:14;;;;;;;124.40;9.55;;;9.40;99.90;;;;;;5081570;28;20048;-66
2021/10/07 07:39:40;;;;;;;25.88;7.40;;;9.50;99.90;;;;;;5073262;28;20051;-66
2021/10/07 07:42:05;;;;;;;79.20;8.13;;;9.50;99.90;;;;;;5069983;28;20123;-66
2021/10/07 07:44:31;;;;;;;37.60;7.57;;;9.60;99.90;;;;;;5070867;28;20040;-66
2021/10/07 07:46:56;;;;;;;76.88;8.73;;;9.80;99.90;;;;;;5082438;28;20374;-66
2021/10/07 07:49:22;;;;;;;88.07;8.50;;;9.70;99.90;;;;;;5081325;28;20119;-66
2021/10/07 07:51:48;;;;;;;32.88;8.20;;;9.70;99.90;;;;;;5080477;28;20527;-66
2021/10/07 07:54:14;;;;;;;78.15;7.70;;;9.70;99.90;;;;;;5073233;28;20038;-66
2021/10/07 07:56:40;;;;;;;34.85;7.53;;;9.80;99.90;;;;;;5076325;28;20032;-66
2021/10/07 07:59:08;;;;;;;69.35;8.80;;;9.90;99.90;;;;;;5076499;28;20036;-66
2021/10/07 08:01:34;;;;;;;41.67;8.32;;;9.90;99.90;;;;;;5077586;28;20036;-65
2021/10/07 08:04:00;;;;;;;88.47;9.77;;;9.80;99.90;;;;;;5082262;28;20044;-66
2021/10/07 08:06:25;;;;;;;41.33;9.25;;;9.80;99.90;;;;;;5092281;28;20048;-66
2021/10/07 08:08:51;;;;;;;67.43;9.85;;;9.80;99.90;;;;;;5072224;28;20037;-66
2021/10/07 08:11:17;;;;;;;63.00;9.40;;;9.90;99.90;;;;;;5071166;28;20106;-66
2021/10/07 08:13:43;;;;;;;74.22;9.55;;;10.00;99.90;;;;;;5067599;28;21066;-66
2021/10/07 08:16:09;;;;;;;66.07;8.75;;;10.00;99.90;;;;;;5067265;28;20047;-66
2021/10/07 08:18:34;;;;;;;66.47;9.57;;;10.10;99.90;;;;;;5069924;28;20075;-66
2021/10/07 08:21:00;;;;;;;49.08;9.55;;;10.10;99.90;;;;;;5069307;28;20040;-66
2021/10/07 08:23:29;;;;;;;74.55;10.20;;;10.20;99.90;;;;;;5060012;28;20055;-66
2021/10/07 08:25:55;;;;;;;38.42;10.02;;;10.30;99.90;;;;;;5068472;28;20083;-66
2021/10/07 08:28:22;;;;;;;50.45;10.60;;;10.40;99.90;;;;;;5070995;28;20037;-66
2021/10/07 08:30:48;;;;;;;30.88;9.80;;;10.50;99.90;;;;;;5072214;28;20414;-66
2021/10/07 08:33:14;;;;;;;26.67;10.43;;;10.50;99.90;;;;;;5063725;28;20045;-66
2021/10/07 08:35:39;;;;;;;49.35;9.43;;;10.70;99.90;;;;;;5071904;28;20466;-66
2021/10/07 08:38:05;;;;;;;36.85;11.25;;;10.70;99.90;;;;;;5070358;28;20040;-66
2021/10/07 08:40:31;;;;;;;34.60;11.38;;;10.70;99.90;;;;;;5072269;28;20456;-66
2021/10/07 08:42:57;;;;;;;65.15;12.35;;;10.70;99.90;;;;;;5072158;28;20060;-66
2021/10/07 08:45:22;;;;;;;32.72;10.27;;;10.80;99.90;;;;;;5053870;28;20082;-66
2021/10/07 08:47:51;;;;;;;24.50;10.25;;;10.80;99.90;;;;;;5074536;28;20139;-66
2021/10/07 08:50:18;;;;;;;44.67;12.20;;;10.90;99.90;;;;;;5076313;28;20360;-66
2021/10/07 08:52:44;;;;;;;27.77;11.05;;;11.00;99.90;;;;;;5064705;28;20041;-66
2021/10/07 08:55:10;;;;;;;41.65;12.77;;;11.10;99.90;;;;;;5069753;28;20385;-66
2021/10/07 08:57:37;;;;;;;53.42;12.82;;;11.20;99.90;;;;;;5067065;28;20043;-66
2021/10/07 09:00:05;;;;;;;34.15;11.75;;;11.20;99.90;;;;;;5072233;28;20150;-66
2021/10/07 09:02:33;;;;;;;40.45;11.82;;;11.10;99.90;;;;;;5067716;28;20550;-66
2021/10/07 09:05:12;;;;;;;31.98;11.38;;;11.10;99.90;;;;;;5071825;28;20149;-65
2021/10/07 09:07:56;;;;;;;22.00;12.98;;;11.10;99.90;;;;;;5072243;28;20056;-66
2021/10/07 09:10:44;;;;;;;51.78;14.05;;;11.20;99.90;;;;;;5071991;28;20529;-66
2021/10/07 09:13:20;;;;;;;24.15;12.85;;;11.40;99.90;;;;;;5071796;28;20127;-65
2021/10/07 09:15:50;;;;;;;23.00;13.68;;;11.40;99.90;;;;;;5066381;28;20045;-65
2021/10/07 09:18:18;;;;;;;38.55;13.40;;;11.50;99.90;;;;;;5070738;28;20101;-66
2021/10/07 09:20:46;;;;;;;33.10;14.68;;;11.60;99.90;;;;;;5070908;28;20159;-65
2021/10/07 09:23:36;;;;;;;33.08;13.90;;;11.50;99.90;;;;;;5060320;28;20051;-66
2021/10/07 09:26:08;;;;;;;23.60;14.73;;;11.50;99.90;;;;;;5054587;28;20140;-66
2021/10/07 09:28:57;;;;;;;21.27;14.07;;;11.50;99.90;;;;;;5067131;28;20036;-66
2021/10/07 09:31:28;;;;;;;19.85;13.20;;;11.60;99.90;;;;;;5068224;28;20079;-66
2021/10/07 09:33:57;;;;;;;36.25;14.48;;;11.70;99.90;;;;;;5067221;28;20050;-66
2021/10/07 09:36:23;;;;;;;30.13;13.95;;;11.60;99.90;;;;;;5068789;28;20048;-66
2021/10/07 09:38:51;;;;;;;15.57;12.57;;;11.70;99.90;;;;;;5070063;28;20098;-66
2021/10/07 09:41:20;;;;;;;23.08;14.15;;;11.70;99.90;;;;;;5067996;28;20132;-66
2021/10/07 09:44:00;;;;;;;26.05;14.45;;;11.80;99.90;;;;;;5070000;28;20378;-66
2021/10/07 09:46:39;;;;;;;27.20;14.20;;;11.70;99.90;;;;;;5068698;28;20127;-66
2021/10/07 09:49:06;;;;;;;19.67;13.00;;;11.80;99.90;;;;;;5059918;28;20106;-66
2021/10/07 09:51:43;;;;;;;18.90;13.60;;;11.90;99.90;;;;;;5069774;28;20071;-66
2021/10/07 09:54:09;;;;;;;17.50;13.43;;;11.90;99.90;;;;;;5071321;28;20044;-66
2021/10/07 09:56:36;;;;;;;21.25;14.43;;;12.00;99.90;;;;;;5071689;28;20037;-66
2021/10/07 09:59:09;;;;;;;20.50;14.50;;;12.00;99.90;;;;;;5069753;28;20478;-65
2021/10/07 10:01:37;;;;;;;36.40;16.65;;;11.90;99.90;;;;;;5074238;28;20530;-65
2021/10/07 10:04:03;;;;;;;19.33;13.23;;;11.80;99.90;;;;;;5081220;28;20437;-65
2021/10/07 10:06:28;;;;;;;23.15;14.13;;;11.90;99.90;;;;;;5076577;28;20456;-65
2021/10/07 10:08:54;;;;;;;32.33;16.48;;;11.80;99.90;;;;;;5064697;28;20048;-66
2021/10/07 10:11:20;;;;;;;23.55;16.50;;;11.80;99.90;;;;;;5061822;28;20097;-66
2021/10/07 10:13:49;;;;;;;19.70;15.40;;;11.90;99.90;;;;;;5058267;28;20410;-66
2021/10/07 10:16:16;;;;;;;21.92;15.52;;;12.00;99.90;;;;;;5061980;28;20041;-66
2021/10/07 10:18:49;;;;;;;26.25;15.90;;;11.90;99.90;;;;;;5059781;28;20115;-66
2021/10/07 10:21:15;;;;;;;23.55;16.38;;;11.90;99.90;;;;;;5064955;28;20040;-66
2021/10/07 10:23:42;;;;;;;20.02;15.13;;;12.10;99.90;;;;;;5066198;28;20462;-66
2021/10/07 10:26:09;;;;;;;19.13;15.05;;;12.10;99.90;;;;;;5060047;28;20143;-66
2021/10/07 10:28:41;;;;;;;21.45;15.70;;;12.30;99.90;;;;;;5060603;28;20087;-66
2021/10/07 10:31:09;;;;;;;25.13;16.25;;;12.40;99.90;;;;;;5062332;28;20052;-65
2021/10/07 10:33:39;;;;;;;25.55;16.02;;;12.40;99.90;;;;;;5062746;28;20033;-65
2021/10/07 10:36:23;;;;;;;23.65;15.82;;;12.30;99.90;;;;;;5066123;28;20123;-65
2021/10/07 10:39:21;;;;;;;22.38;15.63;;;12.20;99.90;;;;;;5067427;28;20025;-65
2021/10/07 10:41:54;;;;;;;20.00;15.48;;;11.90;99.90;;;;;;5063683;28;20448;-65
2021/10/07 10:44:28;;;;;;;18.77;14.88;;;12.00;99.90;;;;;;5081281;28;20445;-66
2021/10/07 10:47:06;;;;;;;16.50;13.55;;;12.20;99.90;;;;;;5069271;28;20238;-65
2021/10/07 10:49:52;;;;;;;18.05;14.07;;;12.40;99.90;;;;;;5067013;28;20048;-65
2021/10/07 10:52:31;;;;;;;19.13;14.75;;;12.50;99.90;;;;;;5064374;28;20063;-65
2021/10/07 10:55:19;;;;;;;17.88;14.73;;;12.70;99.90;;;;;;5054914;28;20527;-65
2021/10/07 10:57:47;;;;;;;18.85;14.73;;;12.80;99.90;;;;;;5066049;28;20049;-65
2021/10/07 11:00:30;;;;;;;20.27;14.50;;;12.90;99.90;;;;;;5075233;28;20051;-65
2021/10/07 11:03:08;;;;;;;17.13;14.38;;;13.00;99.90;;;;;;5064412;28;20044;-65
2021/10/07 11:05:41;;;;;;;17.33;13.70;;;13.10;99.90;;;;;;5058868;28;20048;-63
2021/10/07 11:08:13;;;;;;;21.13;16.35;;;13.10;99.90;;;;;;5062709;28;20053;-63
2021/10/07 11:10:41;;;;;;;20.17;16.63;;;13.10;99.90;;;;;;5061249;28;20433;-64
2021/10/07 11:13:19;;;;;;;22.05;16.83;;;13.20;99.90;;;;;;5068840;28;20123;-64
2021/10/07 11:15:53;;;;;;;21.30;16.95;;;13.20;99.90;;;;;;5067720;28;20029;-63
2021/10/07 11:18:20;;;;;;;22.42;15.32;;;13.30;99.90;;;;;;5071022;28;20041;-63
2021/10/07 11:20:46;;;;;;;20.98;17.33;;;13.20;99.90;;;;;;5071624;28;20478;-64
2021/10/07 11:23:15;;;;;;;21.15;17.08;;;13.20;99.90;;;;;;5073590;28;20048;-64
2021/10/07 11:25:56;;;;;;;17.52;14.77;;;13.20;99.90;;;;;;5072585;28;20043;-64
2021/10/07 11:28:28;;;;;;;21.02;15.95;;;13.30;99.90;;;;;;5071151;28;20466;-64
2021/10/07 11:30:57;;;;;;;;;;;13.40;99.90;;;;;;5075512;28;20047;-65
2021/10/07 11:33:25;;;;;;;21.80;18.13;;;13.40;99.90;;;;;;5075024;28;20002;-65
2021/10/07 11:36:00;;;;;;;19.00;15.48;;;13.50;99.90;;;;;;5075810;28;20037;-64
2021/10/07 11:38:26;;;;;;;21.27;16.45;;;13.50;99.90;;;;;;5070357;28;20044;-64
2021/10/07 11:40:52;;;;;;;20.10;17.05;;;13.50;99.90;;;;;;5072789;28;20052;-64
2021/10/07 11:43:29;;;;;;;20.50;16.85;;;13.50;99.90;;;;;;5068795;28;20043;-64
2021/10/07 11:45:57;;;;;;;20.17;16.60;;;13.50;99.90;;;;;;5073206;28;20036;-64
2021/10/07 11:48:24;;;;;;;20.52;15.80;;;13.50;99.90;;;;;;5071254;28;20044;-64
2021/10/07 11:50:58;;;;;;;22.52;18.30;;;13.50;99.90;;;;;;5071373;28;20055;-64
2021/10/07 11:53:38;;;;;;;22.50;17.30;;;13.40;99.90;;;;;;5070622;28;20071;-64
2021/10/07 11:56:11;;;;;;;20.27;17.50;;;13.50;99.90;;;;;;5069932;28;20037;-65
2021/10/07 11:58:37;;;;;;;23.27;18.63;;;13.50;99.90;;;;;;5078737;28;20225;-65
2021/10/07 12:01:03;;;;;;;23.08;18.50;;;13.50;99.90;;;;;;5068855;28;20506;-64
2021/10/07 12:03:31;;;;;;;25.88;20.77;;;13.50;99.90;;;;;;5074763;28;20382;-64
2021/10/07 12:05:57;;;;;;;25.20;19.55;;;13.60;99.90;;;;;;5064171;28;20419;-64
2021/10/07 12:08:26;;;;;;;27.42;22.05;;;13.60;99.90;;;;;;5067908;28;20198;-65
2021/10/07 12:11:00;;;;;;;26.05;21.05;;;13.60;99.90;;;;;;5077490;28;20037;-64
2021/10/07 12:13:31;;;;;;;25.75;20.45;;;13.50;99.90;;;;;;5072797;28;20036;-64
2021/10/07 12:16:18;;;;;;;26.60;21.42;;;13.50;99.90;;;;;;5066144;28;20032;-65
2021/10/07 12:19:07;;;;;;;27.65;22.65;;;13.50;99.90;;;;;;5063593;28;20055;-64
2021/10/07 12:21:35;;;;;;;26.60;21.67;;;13.50;99.90;;;;;;5067454;28;20936;-64
2021/10/07 12:24:09;;;;;;;26.77;20.55;;;13.50;99.90;;;;;;5077002;28;20067;-65
2021/10/07 12:26:46;;;;;;;27.00;21.23;;;13.50;99.90;;;;;;5068829;28;20040;-65
2021/10/07 12:29:19;;;;;;;27.75;21.35;;;13.60;99.90;;;;;;5069937;28;20043;-65
2021/10/07 12:32:02;;;;;;;25.80;21.55;;;13.70;99.90;;;;;;5075041;28;20479;-64
2021/10/07 12:34:32;;;;;;;24.27;19.83;;;13.70;99.90;;;;;;5051638;28;20123;-65
2021/10/07 12:36:59;;;;;;;23.65;20.40;;;13.70;99.90;;;;;;5051723;28;20365;-65
2021/10/07 12:39:38;;;;;;;26.63;21.60;;;13.70;99.90;;;;;;5052092;28;20437;-64